Time;durP1;ratioP1;P1;durP2;ratioP2;P2;SDS_P1;SDS_P2;PMS_P1;PMS_P2;Temp;Humidity;BMP_temperature;BMP_pressure;BME280_temperature;BME280_humidity;BME280_pressure;Samples;Min_cycle;Max_cycle;Signal;HPM_P1;HPM_P2
2023/09/04 00:00:33;;;;;;;5.80;2.13;;;;;17.80;97705.00;;;;5051206;28;20210;-87
2023/09/04 00:03:22;;;;;;;1.87;1.77;;;;;17.90;97712.00;;;;5055608;28;20209;-85
2023/09/04 00:06:11;;;;;;;1.63;1.53;;;;;17.80;97713.00;;;;5048104;28;20589;-86
2023/09/04 00:09:04;;;;;;;3.27;1.23;;;;;17.70;97718.00;;;;5043592;28;20227;-85
2023/09/04 00:11:53;;;;;;;3.87;1.87;;;;;17.70;97724.00;;;;5040968;28;20209;-87
2023/09/04 00:14:42;;;;;;;1.83;1.63;;;;;17.70;97726.00;;;;5039649;28;20269;-85
2023/09/04 00:17:31;;;;;;;7.87;3.23;;;;;17.60;97730.00;;;;5045234;28;20212;-87
2023/09/04 00:20:20;;;;;;;2.13;1.93;;;;;17.30;97719.00;;;;5040522;28;20192;-84
2023/09/04 00:23:09;;;;;;;2.03;1.70;;;;;17.30;97725.00;;;;5042704;28;20596;-86
2023/09/04 00:26:00;;;;;;;2.77;1.53;;;;;17.10;97728.00;;;;5037953;28;20202;-87
2023/09/04 00:28:49;;;;;;;3.17;1.97;;;;;16.90;97726.00;;;;5039811;28;20205;-85
2023/09/04 00:31:38;;;;;;;2.63;1.53;;;;;17.20;97728.00;;;;5048481;28;20585;-86
2023/09/04 00:34:27;;;;;;;2.57;2.00;;;;;17.30;97724.00;;;;5042323;28;20220;-84
2023/09/04 00:37:16;;;;;;;4.90;2.17;;;;;17.00;97728.00;;;;5048811;28;20201;-85
2023/09/04 00:40:06;;;;;;;1.83;1.73;;;;;16.80;97730.00;;;;5034373;28;20201;-86
2023/09/04 00:42:57;;;;;;;2.90;2.10;;;;;16.70;97743.00;;;;5043813;28;20506;-86
2023/09/04 00:45:46;;;;;;;2.83;1.90;;;;;16.80;97744.00;;;;5052319;28;20600;-86
2023/09/04 00:48:35;;;;;;;6.00;1.70;;;;;17.00;97741.00;;;;5047274;28;20249;-84
2023/09/04 00:51:24;;;;;;;3.17;1.80;;;;;17.00;97747.00;;;;5041141;28;20441;-86
2023/09/04 00:54:15;;;;;;;5.53;1.83;;;;;16.90;97749.00;;;;5053057;28;20534;-85
2023/09/04 00:57:04;;;;;;;3.43;1.90;;;;;16.60;97739.00;;;;5048033;28;20196;-87
2023/09/04 00:59:54;;;;;;;1.90;1.80;;;;;16.60;97752.00;;;;5044390;28;20211;-85
2023/09/04 01:02:44;;;;;;;3.93;1.80;;;;;16.70;97756.00;;;;5044827;28;20216;-85
2023/09/04 01:05:33;;;;;;;2.60;2.40;;;;;16.50;97744.00;;;;5037261;28;20217;-85
2023/09/04 01:08:22;;;;;;;2.23;2.03;;;;;16.50;97758.00;;;;5041020;28;20206;-85
2023/09/04 01:11:16;;;;;;;2.67;2.17;;;;;16.40;97758.00;;;;5050291;28;20220;-86
2023/09/04 01:14:10;;;;;;;3.20;2.03;;;;;16.60;97760.00;;;;5045115;28;20225;-85
2023/09/04 01:17:01;;;;;;;3.97;1.37;;;;;16.50;97765.00;;;;5051165;28;20200;-86
2023/09/04 01:19:50;;;;;;;3.87;1.93;;;;;16.40;97769.00;;;;5040733;28;20201;-87
2023/09/04 01:22:40;;;;;;;2.43;1.73;;;;;16.40;97766.00;;;;5047475;28;20212;-86
2023/09/04 01:25:39;;;;;;;1.60;1.30;;;;;16.40;97753.00;;;;5040722;28;20236;-88
2023/09/04 01:28:39;;;;;;;5.93;2.10;;;;;16.40;97758.00;;;;5045088;28;21358;-86
2023/09/04 01:31:33;;;;;;;3.58;2.60;;;;;16.10;97748.00;;;;5047376;28;20408;-86
2023/09/04 01:34:26;;;;;;;2.70;1.80;;;;;16.00;97750.00;;;;5046345;28;20223;-87
2023/09/04 01:37:15;;;;;;;5.73;1.93;;;;;16.20;97759.00;;;;5047675;28;20220;-85
2023/09/04 01:40:07;;;;;;;2.97;2.67;;;;;16.10;97741.00;;;;5033512;28;20371;-86
2023/09/04 01:42:56;;;;;;;2.90;1.80;;;;;16.30;97749.00;;;;5038915;28;20669;-85
2023/09/04 01:45:45;;;;;;;7.27;2.10;;;;;16.50;97749.00;;;;5035665;28;20229;-87
2023/09/04 01:48:35;;;;;;;4.97;2.13;;;;;16.50;97757.00;;;;5050570;28;20232;-85
2023/09/04 01:51:24;;;;;;;4.90;2.00;;;;;16.10;97754.00;;;;5045654;28;20232;-86
2023/09/04 01:54:14;;;;;;;5.27;1.93;;;;;16.10;97747.00;;;;5051393;28;20220;-86
2023/09/04 01:57:04;;;;;;;2.30;2.10;;;;;16.20;97748.00;;;;5048370;28;20201;-87
2023/09/04 01:59:54;;;;;;;1.90;1.57;;;;;16.10;97747.00;;;;5044538;28;20195;-87
2023/09/04 02:02:42;;;;;;;3.80;2.13;;;;;16.00;97743.00;;;;5056528;28;20208;-85
2023/09/04 02:05:32;;;;;;;2.20;2.00;;;;;15.90;97738.00;;;;5045970;28;20225;-86
2023/09/04 02:08:21;;;;;;;2.27;2.07;;;;;15.60;97739.00;;;;5052430;28;20758;-87
2023/09/04 02:11:10;;;;;;;4.23;1.90;;;;;15.50;97756.00;;;;5057615;28;20240;-85
2023/09/04 02:14:00;;;;;;;2.40;2.03;;;;;15.30;97743.00;;;;5045342;28;20227;-87
2023/09/04 02:16:49;;;;;;;3.57;2.30;;;;;15.40;97744.00;;;;5047286;28;20208;-88
2023/09/04 02:19:38;;;;;;;2.47;2.20;;;;;15.60;97742.00;;;;5046592;28;20207;-87
2023/09/04 02:22:27;;;;;;;2.00;1.80;;;;;15.60;97734.00;;;;5042630;28;20215;-87
2023/09/04 02:25:17;;;;;;;5.53;2.40;;;;;15.60;97736.00;;;;5040674;28;20221;-87
2023/09/04 02:28:06;;;;;;;4.77;2.03;;;;;15.50;97735.00;;;;5047615;28;20211;-87
2023/09/04 02:30:56;;;;;;;1.67;1.57;;;;;15.00;97730.00;;;;5037200;28;20244;-87
2023/09/04 02:33:45;;;;;;;6.60;2.30;;;;;15.00;97726.00;;;;5048948;28;20220;-86
2023/09/04 02:36:34;;;;;;;4.27;2.73;;;;;15.10;97719.00;;;;5045472;28;20204;-87
2023/09/04 02:39:23;;;;;;;2.57;2.37;;;;;15.20;97718.00;;;;5046807;28;20212;-87
2023/09/04 02:42:12;;;;;;;2.70;2.33;;;;;15.20;97705.00;;;;5053181;28;20585;-86
2023/09/04 02:45:01;;;;;;;7.30;2.77;;;;;15.00;97709.00;;;;5036034;28;20237;-87
2023/09/04 02:47:52;;;;;;;5.13;2.60;;;;;15.40;97711.00;;;;5040463;28;20205;-87
2023/09/04 02:50:41;;;;;;;2.50;2.30;;;;;15.40;97716.00;;;;5038454;28;20229;-87
2023/09/04 02:53:32;;;;;;;2.87;2.33;;;;;15.20;97697.00;;;;5044440;28;20201;-85
2023/09/04 02:56:21;;;;;;;2.43;2.20;;;;;15.10;97701.00;;;;5045313;28;20682;-86
2023/09/04 02:59:10;;;;;;;4.03;2.87;;;;;15.00;97703.00;;;;5046747;28;20723;-85
2023/09/04 03:01:59;;;;;;;2.70;2.00;;;;;15.00;97701.00;;;;5055254;28;20568;-85
2023/09/04 03:04:54;;;;;;;7.33;2.80;;;;;15.20;97706.00;;;;5036838;28;20648;-85
2023/09/04 03:07:43;;;;;;;4.20;2.63;;;;;15.20;97707.00;;;;5052157;28;20595;-87
2023/09/04 03:10:32;;;;;;;3.00;2.70;;;;;14.90;97709.00;;;;5042472;28;20239;-87
2023/09/04 03:13:21;;;;;;;6.23;3.03;;;;;14.80;97703.00;;;;5050924;28;20205;-86
2023/09/04 03:16:10;;;;;;;2.70;2.50;;;;;14.70;97708.00;;;;5037778;28;20216;-86
2023/09/04 03:18:59;;;;;;;5.17;2.83;;;;;14.80;97702.00;;;;5046797;28;20209;-87
2023/09/04 03:21:49;;;;;;;14.63;2.90;;;;;14.90;97715.00;;;;5042662;28;20203;-87
2023/09/04 03:24:38;;;;;;;6.57;2.80;;;;;14.70;97708.00;;;;5032003;28;20713;-87
2023/09/04 03:27:28;;;;;;;2.60;2.40;;;;;14.70;97708.00;;;;5047051;28;20200;-86
2023/09/04 03:30:17;;;;;;;9.40;3.40;;;;;14.60;97715.00;;;;5042850;28;20201;-87
2023/09/04 03:33:07;;;;;;;4.07;3.37;;;;;14.70;97719.00;;;;5040004;28;20215;-87
2023/09/04 03:35:58;;;;;;;3.60;3.23;;;;;14.70;97727.00;;;;5042961;28;20203;-85
2023/09/04 03:38:48;;;;;;;2.70;2.40;;;;;14.80;97730.00;;;;5038921;28;20204;-86
2023/09/04 03:41:37;;;;;;;3.17;2.87;;;;;14.90;97726.00;;;;5043921;28;20205;-86
2023/09/04 03:44:26;;;;;;;3.23;2.93;;;;;14.50;97724.00;;;;5054791;28;20226;-86
2023/09/04 03:47:15;;;;;;;3.20;2.90;;;;;14.10;97723.00;;;;5039105;28;20217;-85
2023/09/04 03:50:05;;;;;;;3.23;2.83;;;;;14.20;97728.00;;;;5046142;28;20209;-84
2023/09/04 03:52:54;;;;;;;3.03;2.57;;;;;14.50;97730.00;;;;5044481;28;20206;-85
2023/09/04 03:55:44;;;;;;;4.70;3.17;;;;;14.30;97728.00;;;;5041324;28;20580;-84
2023/09/04 03:58:34;;;;;;;7.47;3.07;;;;;14.10;97725.00;;;;5043398;28;20209;-85
2023/09/04 04:01:23;;;;;;;5.37;3.30;;;;;14.60;97738.00;;;;5041780;28;20204;-85
2023/09/04 04:04:12;;;;;;;7.00;3.23;;;;;14.40;97740.00;;;;5041487;28;20240;-85
2023/09/04 04:07:01;;;;;;;3.70;3.27;;;;;14.70;97736.00;;;;5046213;28;20210;-86
2023/09/04 04:09:50;;;;;;;4.67;3.03;;;;;14.80;97740.00;;;;5050752;28;20238;-85
2023/09/04 04:12:40;;;;;;;8.70;3.57;;;;;14.60;97745.00;;;;5061386;28;20754;-86
2023/09/04 04:15:29;;;;;;;4.17;2.87;;;;;14.60;97744.00;;;;5049798;28;20241;-85
2023/09/04 04:18:18;;;;;;;2.90;2.70;;;;;14.90;97759.00;;;;5055803;28;20207;-85
2023/09/04 04:21:07;;;;;;;6.47;4.97;;;;;14.80;97752.00;;;;5039193;23;20236;-71
2023/09/04 04:23:56;;;;;;;4.10;3.60;;;;;15.10;97748.00;;;;5026367;28;20204;-71
2023/09/04 04:26:45;;;;;;;4.13;3.40;;;;;14.60;97737.00;;;;5026599;28;20209;-71
2023/09/04 04:29:36;;;;;;;3.97;3.57;;;;;14.70;97740.00;;;;5007998;28;20228;-72
2023/09/04 04:32:25;;;;;;;3.50;3.20;;;;;14.70;97748.00;;;;5009657;28;20222;-71
2023/09/04 04:35:14;;;;;;;2.83;2.50;;;;;14.70;97751.00;;;;5005507;28;20279;-70
2023/09/04 04:38:03;;;;;;;5.13;3.70;;;;;14.50;97759.00;;;;4992368;28;20226;-70
2023/09/04 04:40:52;;;;;;;2.77;2.40;;;;;14.30;97753.00;;;;4992137;28;20198;-71
2023/09/04 04:43:41;;;;;;;3.77;2.57;;;;;14.10;97746.00;;;;4997817;28;20210;-71
2023/09/04 04:46:31;;;;;;;3.47;3.07;;;;;14.40;97751.00;;;;5005820;28;20210;-71
2023/09/04 04:49:22;;;;;;;3.73;3.30;;;;;14.40;97746.00;;;;4998772;28;20234;-72
2023/09/04 04:52:11;;;;;;;4.10;3.70;;;;;14.30;97757.00;;;;5004243;28;20222;-73
2023/09/04 04:55:00;;;;;;;3.93;3.53;;;;;14.40;97751.00;;;;5003910;28;20705;-72
2023/09/04 04:57:50;;;;;;;5.80;4.87;;;;;14.80;97761.00;;;;5003104;28;20226;-70
2023/09/04 05:00:39;;;;;;;7.07;4.33;;;;;14.70;97751.00;;;;5008033;28;20213;-71
2023/09/04 05:03:30;;;;;;;4.40;3.53;;;;;14.70;97758.00;;;;4992801;28;20216;-71
2023/09/04 05:06:19;;;;;;;4.93;3.83;;;;;15.00;97776.00;;;;5007900;28;20681;-71
2023/09/04 05:09:08;;;;;;;4.30;3.90;;;;;14.80;97776.00;;;;5003237;28;20705;-70
2023/09/04 05:11:57;;;;;;;3.77;3.37;;;;;14.80;97770.00;;;;4999849;28;20225;-71
2023/09/04 05:14:46;;;;;;;4.47;3.70;;;;;14.80;97778.00;;;;4994054;28;20210;-73
2023/09/04 05:17:35;;;;;;;4.43;4.03;;;;;14.80;97779.00;;;;4999142;28;20222;-71
2023/09/04 05:20:25;;;;;;;3.93;3.53;;;;;14.60;97784.00;;;;5007716;28;20602;-71
2023/09/04 05:23:14;;;;;;;4.33;3.57;;;;;14.60;97783.00;;;;5007432;28;20700;-71
2023/09/04 05:26:03;;;;;;;8.70;3.40;;;;;14.60;97788.00;;;;5010203;28;20194;-71
2023/09/04 05:28:52;;;;;;;3.97;3.57;;;;;14.80;97784.00;;;;5000579;28;20218;-72
2023/09/04 05:31:41;;;;;;;4.47;4.07;;;;;15.00;97783.00;;;;5002294;28;20256;-70
2023/09/04 05:34:31;;;;;;;4.53;3.40;;;;;14.80;97771.00;;;;4999377;28;20210;-71
2023/09/04 05:37:21;;;;;;;5.27;3.33;;;;;14.70;97762.00;;;;4996310;28;20226;-71
2023/09/04 05:40:11;;;;;;;8.40;3.63;;;;;15.10;97776.00;;;;5001455;28;20615;-74
2023/09/04 05:43:00;;;;;;;4.13;3.73;;;;;15.30;97766.00;;;;5004532;28;20205;-71
2023/09/04 05:45:49;;;;;;;7.27;4.23;;;;;15.60;97772.00;;;;5007225;28;20206;-71
2023/09/04 05:48:38;;;;;;;4.20;3.80;;;;;15.50;97774.00;;;;5006676;28;20246;-72
2023/09/04 05:51:27;;;;;;;6.00;3.80;;;;;15.50;97762.00;;;;5001201;28;20603;-71
2023/09/04 05:54:18;;;;;;;4.90;3.70;;;;;15.60;97779.00;;;;5001203;28;20677;-71
2023/09/04 05:57:07;;;;;;;4.33;3.80;;;;;15.70;97785.00;;;;5009215;28;20213;-71
2023/09/04 05:59:56;;;;;;;3.80;3.40;;;;;15.70;97776.00;;;;5001956;28;20237;-71
2023/09/04 06:02:46;;;;;;;5.30;4.80;;;;;16.00;97783.00;;;;5003463;28;20198;-71
2023/09/04 06:05:35;;;;;;;5.03;3.70;;;;;16.10;97775.00;;;;4988787;28;20206;-71
2023/09/04 06:08:24;;;;;;;5.83;4.13;;;;;16.40;97770.00;;;;4997553;28;20234;-71
2023/09/04 06:11:15;;;;;;;5.17;4.37;;;;;16.40;97768.00;;;;5003294;28;20276;-71
2023/09/04 06:14:04;;;;;;;4.97;4.47;;;;;16.40;97769.00;;;;4999992;28;20206;-72
2023/09/04 06:16:53;;;;;;;4.70;4.27;;;;;16.10;97765.00;;;;5000565;28;20206;-72
2023/09/04 06:19:42;;;;;;;7.63;3.73;;;;;16.40;97765.00;;;;4999884;28;20234;-72
2023/09/04 06:22:31;;;;;;;6.10;4.87;;;;;16.60;97771.00;;;;4999333;28;20250;-73
2023/09/04 06:25:20;;;;;;;7.77;4.73;;;;;17.10;97777.00;;;;4998932;28;20764;-72
2023/09/04 06:28:11;;;;;;;8.43;6.70;;;;;17.40;97769.00;;;;5003457;28;20238;-71
2023/09/04 06:31:00;;;;;;;5.70;4.37;;;;;17.60;97784.00;;;;4999070;28;20205;-72
2023/09/04 06:33:49;;;;;;;10.13;6.27;;;;;17.80;97784.00;;;;5000938;28;20214;-72
2023/09/04 06:36:39;;;;;;;8.20;5.83;;;;;17.80;97799.00;;;;5000299;28;20209;-72
2023/09/04 06:39:28;;;;;;;9.47;6.30;;;;;17.80;97799.00;;;;4997427;28;20198;-72
2023/09/04 06:42:17;;;;;;;7.70;5.47;;;;;17.70;97795.00;;;;5000531;28;20584;-72
2023/09/04 06:45:08;;;;;;;8.30;5.40;;;;;17.80;97795.00;;;;4990594;28;20826;-71
2023/09/04 06:47:57;;;;;;;7.33;5.50;;;;;17.70;97792.00;;;;4998686;28;20238;-72
2023/09/04 06:50:48;;;;;;;7.43;5.17;;;;;17.70;97792.00;;;;4992911;28;20561;-71
2023/09/04 06:53:37;;;;;;;5.83;5.27;;;;;17.70;97784.00;;;;4996691;28;20229;-72
2023/09/04 06:56:26;;;;;;;6.20;5.60;;;;;17.70;97776.00;;;;5005095;28;20891;-71
2023/09/04 06:59:15;;;;;;;6.73;5.60;;;;;18.00;97776.00;;;;5006053;28;20222;-73
2023/09/04 07:02:06;;;;;;;7.27;5.03;;;;;18.10;97783.00;;;;4993608;28;20225;-71
2023/09/04 07:04:55;;;;;;;7.13;5.20;;;;;18.00;97792.00;;;;5002830;28;20205;-71
2023/09/04 07:07:47;;;;;;;8.53;4.37;;;;;17.90;97795.00;;;;5005136;28;20276;-71
2023/09/04 07:10:37;;;;;;;5.80;4.60;;;;;18.00;97799.00;;;;4999762;28;20674;-72
2023/09/04 07:13:26;;;;;;;6.53;4.63;;;;;18.20;97796.00;;;;4998240;28;20217;-73
2023/09/04 07:16:15;;;;;;;5.60;4.73;;;;;18.20;97793.00;;;;5003949;28;20673;-72
2023/09/04 07:19:12;;;;;;;6.40;5.10;;;;;18.10;97793.00;;;;4998974;28;20222;-71
2023/09/04 07:22:01;;;;;;;6.37;5.27;;;;;18.20;97781.00;;;;4998234;28;20977;-71
2023/09/04 07:24:50;;;;;;;4.33;3.93;;;;;18.60;97788.00;;;;5001825;28;20604;-73
2023/09/04 07:27:39;;;;;;;6.77;4.40;;;;;19.10;97783.00;;;;4996613;28;20353;-71
2023/09/04 07:30:28;;;;;;;10.87;5.80;;;;;19.40;97775.00;;;;4996722;28;20202;-72
2023/09/04 07:33:18;;;;;;;4.80;4.07;;;;;19.90;97781.00;;;;5002319;28;20229;-73
2023/09/04 07:36:08;;;;;;;5.70;5.10;;;;;20.20;97774.00;;;;4996145;28;20198;-71
2023/09/04 07:38:57;;;;;;;8.23;5.63;;;;;20.60;97779.00;;;;5000259;28;20230;-73
2023/09/04 07:41:46;;;;;;;6.53;4.90;;;;;20.90;97774.00;;;;5005790;28;20586;-73
2023/09/04 07:44:35;;;;;;;4.10;3.70;;;;;21.00;97770.00;;;;4993857;28;20213;-72
2023/09/04 07:47:24;;;;;;;3.80;3.40;;;;;21.50;97771.00;;;;4995747;28;20229;-72
2023/09/04 07:50:13;;;;;;;6.70;3.83;;;;;21.70;97780.00;;;;4999848;28;20206;-72
2023/09/04 07:53:04;;;;;;;3.60;3.30;;;;;22.00;97776.00;;;;4996585;28;20729;-72
2023/09/04 07:55:54;;;;;;;4.00;3.60;;;;;22.20;97784.00;;;;5004845;28;20224;-72
2023/09/04 07:58:44;;;;;;;5.17;3.90;;;;;22.40;97796.00;;;;4993943;28;20724;-72
2023/09/04 08:01:33;;;;;;;5.60;3.83;;;;;22.40;97802.00;;;;5000321;28;20213;-72
2023/09/04 08:04:22;;;;;;;5.07;3.90;;;;;22.30;97818.00;;;;4994572;28;20206;-72
2023/09/04 08:07:11;;;;;;;4.13;3.00;;;;;22.40;97806.00;;;;4993416;28;20224;-72
2023/09/04 08:10:01;;;;;;;3.63;3.33;;;;;22.50;97795.00;;;;4998527;28;20226;-72
2023/09/04 08:12:50;;;;;;;3.43;3.10;;;;;21.90;97790.00;;;;4996377;28;20604;-72
2023/09/04 08:15:40;;;;;;;4.23;3.27;;;;;22.80;97781.00;;;;4992995;28;20203;-71
2023/09/04 08:18:29;;;;;;;5.00;3.17;;;;;23.00;97783.00;;;;5003526;28;20604;-72
2023/09/04 08:21:18;;;;;;;2.80;2.60;;;;;23.10;97771.00;;;;5002972;28;20214;-72
2023/09/04 08:24:07;;;;;;;3.40;3.10;;;;;23.10;97779.00;;;;4996769;28;20215;-72
2023/09/04 08:26:58;;;;;;;3.83;2.63;;;;;23.20;97789.00;;;;4996565;28;20684;-72
2023/09/04 08:29:47;;;;;;;4.33;2.97;;;;;23.40;97783.00;;;;5001843;28;20207;-72
2023/09/04 08:32:36;;;;;;;3.70;3.00;;;;;23.10;97774.00;;;;4994365;28;20198;-72
2023/09/04 08:35:28;;;;;;;2.97;2.50;;;;;23.30;97781.00;;;;4996215;28;20203;-73
2023/09/04 08:38:17;;;;;;;3.00;2.80;;;;;22.50;97769.00;;;;4987527;28;20230;-72
2023/09/04 08:41:08;;;;;;;6.43;4.03;;;;;23.80;97771.00;;;;4994592;28;20207;-72
2023/09/04 08:43:59;;;;;;;3.90;3.27;;;;;24.00;97761.00;;;;4988472;28;20194;-72
2023/09/04 08:46:49;;;;;;;6.40;3.70;;;;;24.40;97757.00;;;;4996287;28;20210;-72
2023/09/04 08:49:38;;;;;;;3.60;2.77;;;;;24.50;97756.00;;;;4995651;28;20202;-71
2023/09/04 08:52:27;;;;;;;3.30;3.00;;;;;24.50;97766.00;;;;4997309;28;20218;-72
2023/09/04 08:55:17;;;;;;;3.30;3.00;;;;;24.60;97770.00;;;;5001157;28;20728;-73
2023/09/04 08:58:07;;;;;;;2.80;2.60;;;;;24.20;97761.00;;;;5011098;28;20222;-72
2023/09/04 09:00:57;;;;;;;2.70;2.50;;;;;24.40;97760.00;;;;5003554;28;20198;-72
2023/09/04 09:03:46;;;;;;;3.73;3.20;;;;;25.30;97755.00;;;;5002778;28;20210;-72
2023/09/04 09:06:35;;;;;;;2.27;2.07;;;;;25.20;97756.00;;;;5002964;28;20206;-72
2023/09/04 09:09:25;;;;;;;3.57;2.93;;;;;25.00;97745.00;;;;5000398;28;20249;-72
2023/09/04 09:12:14;;;;;;;3.17;2.87;;;;;25.30;97753.00;;;;5004025;28;20199;-73
2023/09/04 09:15:03;;;;;;;2.93;2.73;;;;;25.50;97744.00;;;;5001533;28;20690;-71
2023/09/04 09:17:57;;;;;;;4.33;2.57;;;;;25.70;97735.00;;;;4995986;28;20238;-72
2023/09/04 09:20:46;;;;;;;4.80;2.83;;;;;25.10;97736.00;;;;4992373;28;20246;-72
2023/09/04 09:23:35;;;;;;;3.17;2.90;;;;;25.30;97754.00;;;;5009472;28;20220;-71
2023/09/04 09:26:24;;;;;;;3.33;2.73;;;;;25.30;97745.00;;;;5000963;28;20206;-72
2023/09/04 09:29:14;;;;;;;3.10;2.80;;;;;25.50;97747.00;;;;4992979;28;20245;-71
2023/09/04 09:32:03;;;;;;;2.97;2.70;;;;;25.70;97740.00;;;;5007398;28;20215;-71
2023/09/04 09:34:55;;;;;;;4.50;3.47;;;;;26.30;97741.00;;;;4993370;28;20230;-71
2023/09/04 09:37:45;;;;;;;4.47;3.13;;;;;26.50;97727.00;;;;4999813;28;20234;-71
2023/09/04 09:40:34;;;;;;;2.93;2.73;;;;;27.00;97737.00;;;;5008679;28;20585;-72
2023/09/04 09:43:23;;;;;;;3.13;2.83;;;;;26.70;97750.00;;;;5005061;28;20308;-71
2023/09/04 09:46:16;;;;;;;6.07;2.90;;;;;26.90;97728.00;;;;5009127;28;20781;-71
2023/09/04 09:49:07;;;;;;;2.77;2.50;;;;;26.90;97729.00;;;;5000191;28;20227;-71
2023/09/04 09:51:58;;;;;;;4.63;2.73;;;;;27.00;97734.00;;;;4995641;28;20210;-71
2023/09/04 09:54:48;;;;;;;4.10;2.43;;;;;27.10;97732.00;;;;5000696;28;20722;-71
2023/09/04 09:57:37;;;;;;;4.80;3.27;;;;;27.80;97734.00;;;;5008665;28;20227;-72
2023/09/04 10:00:27;;;;;;;4.17;2.70;;;;;27.10;97734.00;;;;5002566;28;20208;-71
2023/09/04 10:03:16;;;;;;;2.43;2.20;;;;;27.40;97735.00;;;;5006688;28;20283;-71
2023/09/04 10:06:06;;;;;;;3.50;2.73;;;;;27.80;97727.00;;;;5000749;28;20292;-71
2023/09/04 10:08:59;;;;;;;2.30;2.10;;;;;27.90;97726.00;;;;5046904;23;20245;-87
2023/09/04 10:11:51;;;;;;;2.50;2.30;;;;;28.30;97728.00;;;;5061665;28;20206;-86
2023/09/04 10:14:42;;;;;;;3.07;2.50;;;;;28.50;97725.00;;;;5070691;28;20226;-85
2023/09/04 10:17:36;;;;;;;2.80;2.00;;;;;28.90;97724.00;;;;5065783;28;20227;-86
2023/09/04 10:20:27;;;;;;;3.60;2.37;;;;;28.40;97717.00;;;;5068542;28;20206;-86
2023/09/04 10:23:19;;;;;;;2.77;2.30;;;;;28.40;97703.00;;;;5063169;28;20221;-86
2023/09/04 10:26:13;;;;;;;2.53;2.07;;;;;28.70;97708.00;;;;5061467;28;20228;-85
2023/09/04 10:29:04;;;;;;;2.83;2.00;;;;;28.50;97712.00;;;;5065678;28;20197;-86
2023/09/04 10:31:40;;;;;;;2.23;2.03;;;;;28.90;97713.00;;;;5064071;23;20263;-66
2023/09/04 10:34:29;;;;;;;3.83;1.80;;;;;28.90;97706.00;;;;5042319;28;20225;-67
2023/09/04 10:37:18;;;;;;;2.37;2.17;;;;;29.00;97700.00;;;;5039183;28;20207;-66
2023/09/04 10:40:10;;;;;;;3.80;2.03;;;;;28.00;97698.00;;;;5013845;28;20245;-68
2023/09/04 10:43:03;;;;;;;2.37;1.80;;;;;28.40;97697.00;;;;5021813;28;20221;-66
2023/09/04 10:46:08;;;;;;;2.43;1.77;;;;;28.10;97692.00;;;;5023694;28;20212;-68
2023/09/04 10:48:57;;;;;;;4.50;2.47;;;;;28.70;97684.00;;;;5017864;28;20229;-66
2023/09/04 10:51:49;;;;;;;20.57;9.93;;;;;29.90;97695.00;;;;5007549;28;20217;-67
2023/09/04 10:54:38;;;;;;;2.27;2.07;;;;;29.30;97693.00;;;;5025129;28;20223;-68
2023/09/04 10:57:27;;;;;;;2.40;1.73;;;;;29.10;97685.00;;;;5017783;28;20884;-67
2023/09/04 11:00:28;;;;;;;2.20;1.73;;;;;30.30;97694.00;;;;5011238;28;20208;-67
2023/09/04 11:03:21;;;;;;;2.10;1.57;;;;;29.20;97680.00;;;;5018172;28;20343;-68
2023/09/04 11:06:16;;;;;;;3.33;1.60;;;;;30.40;97675.00;;;;5018128;28;20208;-67
2023/09/04 11:09:08;;;;;;;2.27;1.67;;;;;30.50;97683.00;;;;5017879;28;20269;-68
2023/09/04 11:12:06;;;;;;;3.83;1.70;;;;;30.20;97673.00;;;;5013242;28;20200;-67
2023/09/04 11:14:56;;;;;;;4.67;2.87;;;;;31.20;97674.00;;;;5015902;28;20264;-66
2023/09/04 11:17:49;;;;;;;2.13;1.30;;;;;31.10;97673.00;;;;5018367;28;20221;-67
2023/09/04 11:20:46;;;;;;;3.40;1.60;;;;;31.60;97669.00;;;;5016131;28;20801;-66
2023/09/04 11:23:35;;;;;;;2.58;1.85;;;;;31.50;97667.00;;;;5015382;28;20587;-67
2023/09/04 11:26:24;;;;;;;5.93;1.83;;;;;31.30;97663.00;;;;5011922;28;20684;-68
2023/09/04 11:29:13;;;;;;;3.90;1.58;;;;;31.50;97674.00;;;;5014566;28;20598;-67
2023/09/04 11:32:02;;;;;;;3.38;2.20;;;;;32.10;97670.00;;;;5019949;28;20213;-66
2023/09/04 11:34:57;;;;;;;1.20;1.10;;;;;30.80;97656.00;;;;5017767;28;20218;-67
2023/09/04 11:37:46;;;;;;;3.33;1.70;;;;;31.70;97662.00;;;;5021189;28;20261;-67
2023/09/04 11:40:36;;;;;;;1.90;1.40;;;;;32.60;97662.00;;;;5014509;28;20211;-67
2023/09/04 11:43:27;;;;;;;1.55;1.30;;;;;31.30;97659.00;;;;5016418;28;20204;-67
2023/09/04 11:46:16;;;;;;;4.40;1.50;;;;;31.60;97659.00;;;;5025539;28;20198;-67
2023/09/04 11:49:05;;;;;;;5.95;1.50;;;;;32.90;97656.00;;;;5020844;28;20218;-67
2023/09/04 11:51:55;;;;;;;2.00;1.63;;;;;33.50;97679.00;;;;5015573;28;20216;-66
2023/09/04 11:54:45;;;;;;;1.63;1.10;;;;;30.90;97651.00;;;;5014436;28;20707;-65
2023/09/04 11:57:34;;;;;;;2.05;1.33;;;;;31.70;97659.00;;;;5017530;28;20220;-67
2023/09/04 12:00:23;;;;;;;2.17;1.85;;;;;32.80;97654.00;;;;5016124;28;20606;-66
2023/09/04 12:03:12;;;;;;;1.42;1.15;;;;;33.40;97650.00;;;;5012741;28;20208;-67
2023/09/04 12:06:01;;;;;;;2.10;1.65;;;;;33.10;97648.00;;;;5020540;28;20208;-67
2023/09/04 12:08:52;;;;;;;1.88;1.55;;;;;33.60;97643.00;;;;5017603;28;20232;-67
2023/09/04 12:11:41;;;;;;;2.50;1.50;;;;;33.90;97643.00;;;;5012479;28;20696;-67
2023/09/04 12:14:31;;;;;;;1.23;1.08;;;;;34.60;97643.00;;;;5017507;28;20732;-67
2023/09/04 12:17:20;;;;;;;2.55;1.30;;;;;34.90;97634.00;;;;5014639;28;20685;-68
2023/09/04 12:20:09;;;;;;;1.55;1.23;;;;;32.90;97632.00;;;;5018257;28;20193;-69
2023/09/04 12:22:59;;;;;;;1.75;1.50;;;;;33.40;97635.00;;;;5017802;28;20621;-67
2023/09/04 12:25:49;;;;;;;6.07;1.50;;;;;32.80;97632.00;;;;5022398;28;20208;-67
2023/09/04 12:28:39;;;;;;;1.50;1.15;;;;;32.60;97639.00;;;;5018771;28;20597;-67
2023/09/04 12:31:28;;;;;;;1.50;1.40;;;;;32.60;97630.00;;;;5022316;28;20220;-66
2023/09/04 12:34:17;;;;;;;2.22;1.50;;;;;32.60;97627.00;;;;5021756;28;20713;-66
2023/09/04 12:37:06;;;;;;;1.60;1.48;;;;;33.50;97625.00;;;;5018960;28;20229;-67
2023/09/04 12:39:55;;;;;;;2.03;1.50;;;;;34.00;97632.00;;;;5027322;28;20213;-67
2023/09/04 12:42:46;;;;;;;2.88;1.83;;;;;34.40;97627.00;;;;5018598;28;20213;-67
2023/09/04 12:45:35;;;;;;;2.40;1.50;;;;;33.90;97624.00;;;;5028152;28;20208;-69
2023/09/04 12:48:24;;;;;;;1.58;1.38;;;;;33.90;97616.00;;;;5027898;28;20221;-68
2023/09/04 12:51:13;;;;;;;1.75;1.50;;;;;30.60;97608.00;;;;5014135;28;20256;-68
2023/09/04 12:54:02;;;;;;;1.20;1.10;;;;;32.20;97596.00;;;;5021959;28;20206;-68
2023/09/04 12:56:51;;;;;;;2.60;1.13;;;;;34.50;97601.00;;;;5019177;28;20519;-70
2023/09/04 12:59:41;;;;;;;2.45;1.10;;;;;35.10;97596.00;;;;5023277;28;20224;-68
2023/09/04 13:02:30;;;;;;;1.08;0.98;;;;;36.10;97603.00;;;;5020355;28;20208;-69
2023/09/04 13:05:19;;;;;;;1.40;1.30;;;;;36.50;97602.00;;;;5020111;28;20200;-65
2023/09/04 13:08:10;;;;;;;3.97;1.98;;;;;36.30;97614.00;;;;5017869;28;20225;-65
2023/09/04 13:10:59;;;;;;;2.70;2.35;;;;;35.40;97604.00;;;;5024359;28;20613;-66
2023/09/04 13:13:48;;;;;;;1.73;1.63;;;;;35.60;97591.00;;;;5022829;28;20213;-67
2023/09/04 13:16:38;;;;;;;2.28;2.08;;;;;35.80;97595.00;;;;5016406;28;20221;-66
2023/09/04 13:19:27;;;;;;;3.08;1.95;;;;;36.00;97600.00;;;;5010417;28;20237;-67
2023/09/04 13:22:18;;;;;;;1.67;1.58;;;;;35.20;97595.00;;;;5026308;28;20209;-71
2023/09/04 13:25:07;;;;;;;3.00;2.08;;;;;35.40;97594.00;;;;5019190;28;20198;-71
2023/09/04 13:27:56;;;;;;;3.67;1.83;;;;;33.70;97596.00;;;;5016332;28;20229;-67
2023/09/04 13:30:45;;;;;;;3.10;2.05;;;;;35.40;97595.00;;;;5014856;28;20228;-68
2023/09/04 13:33:37;;;;;;;1.98;1.88;;;;;35.00;97582.00;;;;5014530;28;20201;-67
2023/09/04 13:36:26;;;;;;;2.45;2.25;;;;;35.70;97573.00;;;;5018051;28;20241;-68
2023/09/04 13:39:15;;;;;;;2.40;1.83;;;;;36.40;97585.00;;;;5017542;28;20602;-69
2023/09/04 13:42:05;;;;;;;3.33;1.80;;;;;36.20;97576.00;;;;5018445;28;20206;-68
2023/09/04 13:44:54;;;;;;;2.80;1.63;;;;;36.00;97568.00;;;;5020819;28;20197;-68
2023/09/04 13:47:43;;;;;;;1.50;1.40;;;;;34.50;97560.00;;;;5021106;28;20236;-68
2023/09/04 13:50:34;;;;;;;2.72;1.80;;;;;36.10;97559.00;;;;5016421;28;20206;-67
2023/09/04 13:53:23;;;;;;;6.50;1.80;;;;;36.90;97562.00;;;;5017860;28;20201;-66
2023/09/04 13:56:12;;;;;;;2.00;1.80;;;;;37.00;97569.00;;;;5015519;28;20696;-69
2023/09/04 13:59:00;;;;;;;6.47;1.75;;;34.00;56.90;37.10;97564.00;;;;5016395;28;20217;-68
2023/09/04 14:01:49;;;;;;;2.35;1.77;;;33.90;57.10;36.50;97562.00;;;;5020506;28;20220;-68
2023/09/04 14:04:38;;;;;;;1.92;1.73;;;33.90;56.40;36.00;97571.00;;;;5007691;28;20209;-69
2023/09/04 14:07:29;;;;;;;2.10;1.55;;;33.90;57.20;34.10;97557.00;;;;5018067;28;20281;-68